To NAV CANADA Home Page Login to a new session Search on AWWS site Disclaimer Vers la page française équivalente Tips FAQ What's new on the site To the Forecasts and Observations / NOTAM section To "File a Flight Plan" website Publications and other links Update of the User's profile FIC Telephone Numbers My Weather Data Folder Route Weather Data Regional Weather Data Local Weather Data To the Forecasts and Observations / NOTAM section
Request Generated 02/25/2018 at 11:48:25 UTC . Weather information available at that time is displayed.

METAR/TAF

If you find any discrepancies between the coded METAR/TAF and the plain language METAR/TAF please use the coded METAR/TAF. LWIS bulletins are not decoded in plain language.

TORONTO/LESTER B. PEARSON INTL/ON    

METAR CYYZ 251100Z 09014G23KT 5SM -RA OVC004 02/01 A2961 RMK SC8 PRESFR SLP035=
METAR
LOCATION
CYYZ - TORONTO/LESTER B. PEARSON INTL/ON
DATE - TIME
25 FEBRUARY 2018 - 1100 UTC
WIND
90 TRUE @ 14  KNOTS
GUSTS
23 KNOTS
VISIBILITY
5 STAT.  MILES
RUNWAY VISUAL RANGE
WEATHER
LIGHT RAIN
CLOUDINESS
OVERCAST 400  FT
TEMP / DEWPOINT
2 C / 1 C
ALTIMETER
29.61 IN HG
RECENT WEATHER
WIND SHEAR

SPECI CYYZ 251041Z 09015G24KT 6SM -RA OVC004 02/00 A2963 RMK SC8 PRESFR SLP042=
SPECI
LOCATION
CYYZ - TORONTO/LESTER B. PEARSON INTL/ON
DATE - TIME
25 FEBRUARY 2018 - 1041 UTC
WIND
90 TRUE @ 15  KNOTS
GUSTS
24 KNOTS
VISIBILITY
6 STAT.  MILES
RUNWAY VISUAL RANGE
WEATHER
LIGHT RAIN
CLOUDINESS
OVERCAST 400  FT
TEMP / DEWPOINT
2 C / 0 C
ALTIMETER
29.63 IN HG
RECENT WEATHER
WIND SHEAR

METAR CYYZ 251000Z 09019G26KT 6SM -RA OVC005 02/00 A2967 RMK SC8 PRESFR SLP056=
METAR
LOCATION
CYYZ - TORONTO/LESTER B. PEARSON INTL/ON
DATE - TIME
25 FEBRUARY 2018 - 1000 UTC
WIND
90 TRUE @ 19  KNOTS
GUSTS
26 KNOTS
VISIBILITY
6 STAT.  MILES
RUNWAY VISUAL RANGE
WEATHER
LIGHT RAIN
CLOUDINESS
OVERCAST 500  FT
TEMP / DEWPOINT
2 C / 0 C
ALTIMETER
29.67 IN HG
RECENT WEATHER
WIND SHEAR

METAR CYYZ 250900Z 10016G25KT 6SM -RA OVC005 01/M00 A2973 RMK SC8 PRESRR SLP074=
METAR
LOCATION
CYYZ - TORONTO/LESTER B. PEARSON INTL/ON
DATE - TIME
25 FEBRUARY 2018 - 0900 UTC
WIND
100 TRUE @ 16  KNOTS
GUSTS
25 KNOTS
VISIBILITY
6 STAT.  MILES
RUNWAY VISUAL RANGE
WEATHER
LIGHT RAIN
CLOUDINESS
OVERCAST 500  FT
TEMP / DEWPOINT
1 C / 0 C
ALTIMETER
29.73 IN HG
RECENT WEATHER
WIND SHEAR

TAF CYYZ 251139Z 2512/2618 09015G25KT 6SM -RA BR OVC004 TEMPO 2512/2515 2SM BR OVC003 BECMG 2514/2515 25015KT FM251500 25015KT P6SM SCT005 BKN015 TEMPO 2515/2516 SCT015 FM251600 25020G35KT P6SM FEW020 FM252100 25020G30KT P6SM FEW025 BECMG 2522/2524 25018KT FM260300 26012KT P6SM FEW030 BECMG 2615/2617 27010G20KT RMK NXT FCST BY 251500Z=
TAF
LOCATION

CYYZ - TORONTO/LESTER B. PEARSON INTL/ON
VALIDITY [UTC]
25 FEB - 1139 to
26 FEB - 1800
 
TIMES
[UTC]
WIND
[DEGREES TRUE]
VISIBILITY
[STAT. MILES]
WEATHER
CLOUDINESS
[FEET AGL]
 
25 FEB - 1200 to
25 FEB - 1500
90 @ 15 KNOTS
GUSTS 25 KNOTS
6
LIGHT RAIN
MIST
400 OVERCAST
TEMPORARY CHANGES
25 FEB - 1200 to
25 FEB - 1500
 
2
MIST
300 OVERCAST
BECOMING
25 FEB - 1400 to
25 FEB - 1500
250 @ 15 KNOTS
 
 
 
 
25 FEB - 1500 to
25 FEB - 1600
250 @ 15 KNOTS
6+
NIL
500 SCATTERED
1500 BROKEN
TEMPORARY CHANGES
25 FEB - 1500 to
25 FEB - 1600
 
 
 
1500 SCATTERED
 
25 FEB - 1600 to
25 FEB - 2100
250 @ 20 KNOTS
GUSTS 35 KNOTS
6+
NIL
2000 FEW
 
25 FEB - 2100 to
26 FEB - 0300
250 @ 20 KNOTS
GUSTS 30 KNOTS
6+
NIL
2500 FEW
BECOMING
25 FEB - 2200 to
26 FEB - 0000
250 @ 18 KNOTS
 
 
 
 
26 FEB - 0300 to
26 FEB - 1800
260 @ 12 KNOTS
6+
NIL
3000 FEW
BECOMING
26 FEB - 1500 to
26 FEB - 1700
270 @ 10 KNOTS
GUSTS 20 KNOTS
 
 
 
REMARKS
THE NEXT FORECAST WILL BE ISSUED BY 1500 UTC ON DAY 25


Your time UTC time
Weather data provided by Environment Canada and NAV CANADA